sensor_id;sensor_type;location;lat;lon;timestamp;temperature;humidity
13203;DHT22;6666;51.626;7.530;2023-12-20T00:01:23;7.90;99.90
13203;DHT22;6666;51.626;7.530;2023-12-20T00:03:50;7.90;99.90
13203;DHT22;6666;51.626;7.530;2023-12-20T00:06:19;7.80;99.90
13203;DHT22;6666;51.626;7.530;2023-12-20T00:08:47;7.70;99.90
13203;DHT22;6666;51.626;7.530;2023-12-20T00:11:15;7.70;99.90
13203;DHT22;6666;51.626;7.530;2023-12-20T00:13:44;7.70;99.90
13203;DHT22;6666;51.626;7.530;2023-12-20T00:16:17;7.70;99.90
13203;DHT22;6666;51.626;7.530;2023-12-20T00:18:46;7.70;99.90
13203;DHT22;6666;51.626;7.530;2023-12-20T00:21:14;7.70;99.90
13203;DHT22;6666;51.626;7.530;2023-12-20T00:23:42;7.60;99.90
13203;DHT22;6666;51.626;7.530;2023-12-20T00:26:10;7.60;99.90
13203;DHT22;6666;51.626;7.530;2023-12-20T00:28:38;7.60;99.90
13203;DHT22;6666;51.626;7.530;2023-12-20T00:31:07;7.60;99.90
13203;DHT22;6666;51.626;7.530;2023-12-20T00:33:36;7.50;99.90
13203;DHT22;6666;51.626;7.530;2023-12-20T00:36:05;7.50;99.90
13203;DHT22;6666;51.626;7.530;2023-12-20T00:38:33;7.50;99.90
13203;DHT22;6666;51.626;7.530;2023-12-20T00:41:01;7.50;99.90
13203;DHT22;6666;51.626;7.530;2023-12-20T00:43:30;7.60;99.90
13203;DHT22;6666;51.626;7.530;2023-12-20T00:45:58;7.60;99.90
13203;DHT22;6666;51.626;7.530;2023-12-20T00:48:28;7.60;99.90
13203;DHT22;6666;51.626;7.530;2023-12-20T00:50:57;7.70;99.90
13203;DHT22;6666;51.626;7.530;2023-12-20T00:53:25;7.70;99.90
13203;DHT22;6666;51.626;7.530;2023-12-20T00:55:53;7.60;99.90
13203;DHT22;6666;51.626;7.530;2023-12-20T00:58:21;7.70;99.90
13203;DHT22;6666;51.626;7.530;2023-12-20T01:00:49;7.70;99.90
13203;DHT22;6666;51.626;7.530;2023-12-20T01:03:18;7.70;99.90
13203;DHT22;6666;51.626;7.530;2023-12-20T01:05:47;7.60;99.90
13203;DHT22;6666;51.626;7.530;2023-12-20T01:08:15;7.70;99.90
13203;DHT22;6666;51.626;7.530;2023-12-20T01:10:43;7.70;99.90
13203;DHT22;6666;51.626;7.530;2023-12-20T01:13:11;7.70;99.90
13203;DHT22;6666;51.626;7.530;2023-12-20T01:15:38;7.60;99.90
13203;DHT22;6666;51.626;7.530;2023-12-20T01:18:06;7.60;99.90
13203;DHT22;6666;51.626;7.530;2023-12-20T01:20:35;7.50;99.90
13203;DHT22;6666;51.626;7.530;2023-12-20T01:23:05;7.50;99.90
13203;DHT22;6666;51.626;7.530;2023-12-20T01:25:33;7.50;99.90
13203;DHT22;6666;51.626;7.530;2023-12-20T01:28:01;7.50;99.90
13203;DHT22;6666;51.626;7.530;2023-12-20T01:30:30;7.40;99.90
13203;DHT22;6666;51.626;7.530;2023-12-20T01:32:59;7.50;99.90
13203;DHT22;6666;51.626;7.530;2023-12-20T01:35:27;7.40;99.90
13203;DHT22;6666;51.626;7.530;2023-12-20T01:37:56;7.30;99.90
13203;DHT22;6666;51.626;7.530;2023-12-20T01:40:25;7.30;99.90
13203;DHT22;6666;51.626;7.530;2023-12-20T01:42:59;7.30;99.90
13203;DHT22;6666;51.626;7.530;2023-12-20T01:45:28;7.20;99.90
13203;DHT22;6666;51.626;7.530;2023-12-20T01:47:57;7.30;99.90
13203;DHT22;6666;51.626;7.530;2023-12-20T01:50:27;7.30;99.90
13203;DHT22;6666;51.626;7.530;2023-12-20T01:52:57;7.20;99.90
13203;DHT22;6666;51.626;7.530;2023-12-20T01:55:29;7.20;99.90
13203;DHT22;6666;51.626;7.530;2023-12-20T01:57:59;7.20;99.90
13203;DHT22;6666;51.626;7.530;2023-12-20T02:00:28;7.10;99.90
13203;DHT22;6666;51.626;7.530;2023-12-20T02:02:57;7.10;99.90
13203;DHT22;6666;51.626;7.530;2023-12-20T02:05:29;7.20;99.90
13203;DHT22;6666;51.626;7.530;2023-12-20T02:07:58;7.20;99.90
13203;DHT22;6666;51.626;7.530;2023-12-20T02:10:27;7.20;99.90
13203;DHT22;6666;51.626;7.530;2023-12-20T02:12:56;7.10;99.90
13203;DHT22;6666;51.626;7.530;2023-12-20T02:15:24;7.20;99.90
13203;DHT22;6666;51.626;7.530;2023-12-20T02:17:52;7.20;99.90
13203;DHT22;6666;51.626;7.530;2023-12-20T02:20:21;7.10;99.90
13203;DHT22;6666;51.626;7.530;2023-12-20T02:22:50;7.10;99.90
13203;DHT22;6666;51.626;7.530;2023-12-20T02:25:18;7.10;99.90
13203;DHT22;6666;51.626;7.530;2023-12-20T02:27:47;7.10;99.90
13203;DHT22;6666;51.626;7.530;2023-12-20T02:30:16;7.10;99.90
13203;DHT22;6666;51.626;7.530;2023-12-20T02:32:44;7.20;99.90
13203;DHT22;6666;51.626;7.530;2023-12-20T02:35:12;7.20;99.90
13203;DHT22;6666;51.626;7.530;2023-12-20T02:37:40;7.20;99.90
13203;DHT22;6666;51.626;7.530;2023-12-20T02:40:10;7.20;99.90
13203;DHT22;6666;51.626;7.530;2023-12-20T02:42:38;7.20;99.90
13203;DHT22;6666;51.626;7.530;2023-12-20T02:45:07;7.20;99.90
13203;DHT22;6666;51.626;7.530;2023-12-20T02:47:35;7.20;99.90
13203;DHT22;6666;51.626;7.530;2023-12-20T02:50:04;7.10;99.90
13203;DHT22;6666;51.626;7.530;2023-12-20T02:52:32;7.10;99.90
13203;DHT22;6666;51.626;7.530;2023-12-20T02:55:00;7.20;99.90
13203;DHT22;6666;51.626;7.530;2023-12-20T02:57:30;7.10;99.90
13203;DHT22;6666;51.626;7.530;2023-12-20T02:59:59;7.10;99.90
13203;DHT22;6666;51.626;7.530;2023-12-20T03:02:27;7.10;99.90
13203;DHT22;6666;51.626;7.530;2023-12-20T03:04:55;7.10;99.90
13203;DHT22;6666;51.626;7.530;2023-12-20T03:07:23;7.10;99.90
13203;DHT22;6666;51.626;7.530;2023-12-20T03:09:51;7.00;99.90
13203;DHT22;6666;51.626;7.530;2023-12-20T03:12:41;7.00;99.90
13203;DHT22;6666;51.626;7.530;2023-12-20T03:15:09;7.00;99.90
13203;DHT22;6666;51.626;7.530;2023-12-20T03:17:38;7.10;99.90
13203;DHT22;6666;51.626;7.530;2023-12-20T03:20:07;7.10;99.90
13203;DHT22;6666;51.626;7.530;2023-12-20T03:22:36;7.10;99.90
13203;DHT22;6666;51.626;7.530;2023-12-20T03:25:04;7.10;99.90
13203;DHT22;6666;51.626;7.530;2023-12-20T03:27:32;7.10;99.90
13203;DHT22;6666;51.626;7.530;2023-12-20T03:30:02;7.10;99.90
13203;DHT22;6666;51.626;7.530;2023-12-20T03:32:31;7.10;99.90
13203;DHT22;6666;51.626;7.530;2023-12-20T03:34:59;7.10;99.90
13203;DHT22;6666;51.626;7.530;2023-12-20T03:37:27;7.00;99.90
13203;DHT22;6666;51.626;7.530;2023-12-20T03:39:55;7.00;99.90
13203;DHT22;6666;51.626;7.530;2023-12-20T03:42:24;7.00;99.90
13203;DHT22;6666;51.626;7.530;2023-12-20T03:44:52;7.00;99.90
13203;DHT22;6666;51.626;7.530;2023-12-20T03:47:21;7.10;99.90
13203;DHT22;6666;51.626;7.530;2023-12-20T03:49:49;7.00;99.90
13203;DHT22;6666;51.626;7.530;2023-12-20T03:52:17;7.00;99.90
13203;DHT22;6666;51.626;7.530;2023-12-20T03:54:46;7.00;99.90
13203;DHT22;6666;51.626;7.530;2023-12-20T03:57:14;6.90;99.90
13203;DHT22;6666;51.626;7.530;2023-12-20T03:59:42;6.90;99.90
13203;DHT22;6666;51.626;7.530;2023-12-20T04:02:10;6.90;99.90
13203;DHT22;6666;51.626;7.530;2023-12-20T04:04:40;6.90;99.90
13203;DHT22;6666;51.626;7.530;2023-12-20T04:07:09;6.80;99.90
13203;DHT22;6666;51.626;7.530;2023-12-20T04:09:37;6.90;99.90
13203;DHT22;6666;51.626;7.530;2023-12-20T04:12:06;6.80;99.90
13203;DHT22;6666;51.626;7.530;2023-12-20T04:14:34;6.70;99.90
13203;DHT22;6666;51.626;7.530;2023-12-20T04:17:02;6.70;99.90
13203;DHT22;6666;51.626;7.530;2023-12-20T04:19:30;6.70;99.90
13203;DHT22;6666;51.626;7.530;2023-12-20T04:22:00;6.60;99.90
13203;DHT22;6666;51.626;7.530;2023-12-20T04:24:28;6.70;99.90
13203;DHT22;6666;51.626;7.530;2023-12-20T04:26:56;6.70;99.90
13203;DHT22;6666;51.626;7.530;2023-12-20T04:29:24;6.60;99.90
13203;DHT22;6666;51.626;7.530;2023-12-20T04:31:53;6.60;99.90
13203;DHT22;6666;51.626;7.530;2023-12-20T04:34:22;6.60;99.90
13203;DHT22;6666;51.626;7.530;2023-12-20T04:36:51;6.60;99.90
13203;DHT22;6666;51.626;7.530;2023-12-20T04:39:20;6.60;99.90
13203;DHT22;6666;51.626;7.530;2023-12-20T04:41:48;6.70;99.90
13203;DHT22;6666;51.626;7.530;2023-12-20T04:44:17;6.60;99.90
13203;DHT22;6666;51.626;7.530;2023-12-20T04:46:45;6.60;99.90
13203;DHT22;6666;51.626;7.530;2023-12-20T04:49:13;6.60;99.90
13203;DHT22;6666;51.626;7.530;2023-12-20T04:51:41;6.60;99.90
13203;DHT22;6666;51.626;7.530;2023-12-20T04:54:09;6.60;99.90
13203;DHT22;6666;51.626;7.530;2023-12-20T04:56:39;6.60;99.90
13203;DHT22;6666;51.626;7.530;2023-12-20T04:59:07;6.70;99.90
13203;DHT22;6666;51.626;7.530;2023-12-20T05:01:35;6.70;99.90
13203;DHT22;6666;51.626;7.530;2023-12-20T05:04:04;6.70;99.90
13203;DHT22;6666;51.626;7.530;2023-12-20T05:06:32;6.70;99.90
13203;DHT22;6666;51.626;7.530;2023-12-20T05:09:00;6.80;99.90
13203;DHT22;6666;51.626;7.530;2023-12-20T05:11:28;6.80;99.90
13203;DHT22;6666;51.626;7.530;2023-12-20T05:13:59;6.80;99.90
13203;DHT22;6666;51.626;7.530;2023-12-20T05:16:27;6.80;99.90
13203;DHT22;6666;51.626;7.530;2023-12-20T05:18:56;6.70;99.90
13203;DHT22;6666;51.626;7.530;2023-12-20T05:21:25;6.70;99.90
13203;DHT22;6666;51.626;7.530;2023-12-20T05:23:53;6.80;99.90
13203;DHT22;6666;51.626;7.530;2023-12-20T05:26:22;6.70;99.90
13203;DHT22;6666;51.626;7.530;2023-12-20T05:28:50;6.70;99.90
13203;DHT22;6666;51.626;7.530;2023-12-20T05:31:19;6.80;99.90
13203;DHT22;6666;51.626;7.530;2023-12-20T05:33:47;6.70;99.90
13203;DHT22;6666;51.626;7.530;2023-12-20T05:36:15;6.70;99.90
13203;DHT22;6666;51.626;7.530;2023-12-20T05:38:44;6.60;99.90
13203;DHT22;6666;51.626;7.530;2023-12-20T05:41:12;6.60;99.90
13203;DHT22;6666;51.626;7.530;2023-12-20T05:43:40;6.60;99.90
13203;DHT22;6666;51.626;7.530;2023-12-20T05:46:10;6.70;99.90
13203;DHT22;6666;51.626;7.530;2023-12-20T05:48:39;6.70;99.90
13203;DHT22;6666;51.626;7.530;2023-12-20T05:51:08;6.70;99.90
13203;DHT22;6666;51.626;7.530;2023-12-20T05:53:39;6.70;99.90
13203;DHT22;6666;51.626;7.530;2023-12-20T05:56:07;6.80;99.90
13203;DHT22;6666;51.626;7.530;2023-12-20T05:58:35;6.70;99.90
13203;DHT22;6666;51.626;7.530;2023-12-20T06:01:04;6.70;99.90
13203;DHT22;6666;51.626;7.530;2023-12-20T06:03:32;6.70;99.90
13203;DHT22;6666;51.626;7.530;2023-12-20T06:06:06;6.70;99.90
13203;DHT22;6666;51.626;7.530;2023-12-20T06:08:42;6.70;99.90
13203;DHT22;6666;51.626;7.530;2023-12-20T06:11:11;6.70;99.90
13203;DHT22;6666;51.626;7.530;2023-12-20T06:13:40;6.70;99.90
13203;DHT22;6666;51.626;7.530;2023-12-20T06:16:08;6.70;99.90
13203;DHT22;6666;51.626;7.530;2023-12-20T06:18:37;6.70;99.90
13203;DHT22;6666;51.626;7.530;2023-12-20T06:21:07;6.70;99.90
13203;DHT22;6666;51.626;7.530;2023-12-20T06:23:35;6.70;99.90
13203;DHT22;6666;51.626;7.530;2023-12-20T06:26:03;6.70;99.90
13203;DHT22;6666;51.626;7.530;2023-12-20T06:28:32;6.70;99.90
13203;DHT22;6666;51.626;7.530;2023-12-20T06:31:00;6.70;99.90
13203;DHT22;6666;51.626;7.530;2023-12-20T06:33:28;6.70;99.90
13203;DHT22;6666;51.626;7.530;2023-12-20T06:35:57;6.70;99.90
13203;DHT22;6666;51.626;7.530;2023-12-20T06:38:27;6.70;99.90
13203;DHT22;6666;51.626;7.530;2023-12-20T06:40:55;6.70;99.90
13203;DHT22;6666;51.626;7.530;2023-12-20T06:43:24;6.60;99.90
13203;DHT22;6666;51.626;7.530;2023-12-20T06:45:57;6.70;99.90
13203;DHT22;6666;51.626;7.530;2023-12-20T06:48:25;6.80;99.90
13203;DHT22;6666;51.626;7.530;2023-12-20T06:50:54;6.70;99.90
13203;DHT22;6666;51.626;7.530;2023-12-20T06:53:22;6.70;99.90
13203;DHT22;6666;51.626;7.530;2023-12-20T06:55:51;6.80;99.90
13203;DHT22;6666;51.626;7.530;2023-12-20T06:58:20;6.80;99.90
13203;DHT22;6666;51.626;7.530;2023-12-20T07:00:48;6.90;99.90
13203;DHT22;6666;51.626;7.530;2023-12-20T07:03:16;6.80;99.90
13203;DHT22;6666;51.626;7.530;2023-12-20T07:05:44;6.80;99.90
13203;DHT22;6666;51.626;7.530;2023-12-20T07:08:12;6.80;99.90
13203;DHT22;6666;51.626;7.530;2023-12-20T07:10:42;6.80;99.90
13203;DHT22;6666;51.626;7.530;2023-12-20T07:13:11;6.90;99.90
13203;DHT22;6666;51.626;7.530;2023-12-20T07:15:41;6.80;99.90
13203;DHT22;6666;51.626;7.530;2023-12-20T07:18:11;6.80;99.90
13203;DHT22;6666;51.626;7.530;2023-12-20T07:20:39;6.80;99.90
13203;DHT22;6666;51.626;7.530;2023-12-20T07:23:07;6.90;99.90
13203;DHT22;6666;51.626;7.530;2023-12-20T07:25:35;6.90;99.90
13203;DHT22;6666;51.626;7.530;2023-12-20T07:28:04;6.90;99.90
13203;DHT22;6666;51.626;7.530;2023-12-20T07:30:34;6.90;99.90
13203;DHT22;6666;51.626;7.530;2023-12-20T07:33:02;6.90;99.90
13203;DHT22;6666;51.626;7.530;2023-12-20T07:35:31;6.90;99.90
13203;DHT22;6666;51.626;7.530;2023-12-20T07:37:59;6.90;99.90
13203;DHT22;6666;51.626;7.530;2023-12-20T07:40:27;6.90;99.90
13203;DHT22;6666;51.626;7.530;2023-12-20T07:42:55;6.90;99.90
13203;DHT22;6666;51.626;7.530;2023-12-20T07:45:25;6.90;99.90
13203;DHT22;6666;51.626;7.530;2023-12-20T07:47:54;6.90;99.90
13203;DHT22;6666;51.626;7.530;2023-12-20T07:50:22;6.90;99.90
13203;DHT22;6666;51.626;7.530;2023-12-20T07:52:51;6.90;99.90
13203;DHT22;6666;51.626;7.530;2023-12-20T07:55:20;6.90;99.90
13203;DHT22;6666;51.626;7.530;2023-12-20T07:57:48;6.90;99.90
13203;DHT22;6666;51.626;7.530;2023-12-20T08:00:17;6.90;99.90
13203;DHT22;6666;51.626;7.530;2023-12-20T08:02:45;6.90;99.90
13203;DHT22;6666;51.626;7.530;2023-12-20T08:05:14;7.00;99.90
13203;DHT22;6666;51.626;7.530;2023-12-20T08:07:44;6.90;99.90
13203;DHT22;6666;51.626;7.530;2023-12-20T08:10:13;7.00;99.90
13203;DHT22;6666;51.626;7.530;2023-12-20T08:12:41;6.90;99.90
13203;DHT22;6666;51.626;7.530;2023-12-20T08:15:10;6.90;99.90
13203;DHT22;6666;51.626;7.530;2023-12-20T08:17:38;6.90;99.90
13203;DHT22;6666;51.626;7.530;2023-12-20T08:20:07;6.90;99.90
13203;DHT22;6666;51.626;7.530;2023-12-20T08:22:37;7.00;99.90
13203;DHT22;6666;51.626;7.530;2023-12-20T08:25:06;7.00;99.90
13203;DHT22;6666;51.626;7.530;2023-12-20T08:27:38;7.00;99.90
13203;DHT22;6666;51.626;7.530;2023-12-20T08:30:09;7.00;99.90
13203;DHT22;6666;51.626;7.530;2023-12-20T08:32:37;7.10;99.90
13203;DHT22;6666;51.626;7.530;2023-12-20T08:35:06;7.10;99.90
13203;DHT22;6666;51.626;7.530;2023-12-20T08:37:34;7.10;99.90
13203;DHT22;6666;51.626;7.530;2023-12-20T08:40:05;7.10;99.90
13203;DHT22;6666;51.626;7.530;2023-12-20T08:42:34;7.10;99.90
13203;DHT22;6666;51.626;7.530;2023-12-20T08:45:04;7.10;99.90
13203;DHT22;6666;51.626;7.530;2023-12-20T08:47:33;7.10;99.90
13203;DHT22;6666;51.626;7.530;2023-12-20T08:50:02;7.10;99.90
13203;DHT22;6666;51.626;7.530;2023-12-20T08:52:30;7.20;99.90
13203;DHT22;6666;51.626;7.530;2023-12-20T08:54:58;7.20;99.90
13203;DHT22;6666;51.626;7.530;2023-12-20T08:57:28;7.20;99.90
13203;DHT22;6666;51.626;7.530;2023-12-20T08:59:58;7.20;99.90
13203;DHT22;6666;51.626;7.530;2023-12-20T09:02:26;7.20;99.90
13203;DHT22;6666;51.626;7.530;2023-12-20T09:04:56;7.20;99.90
13203;DHT22;6666;51.626;7.530;2023-12-20T09:07:25;7.20;99.90
13203;DHT22;6666;51.626;7.530;2023-12-20T09:09:54;7.20;99.90
13203;DHT22;6666;51.626;7.530;2023-12-20T09:12:22;7.20;99.90
13203;DHT22;6666;51.626;7.530;2023-12-20T09:14:52;7.20;99.90
13203;DHT22;6666;51.626;7.530;2023-12-20T09:17:20;7.30;99.90
13203;DHT22;6666;51.626;7.530;2023-12-20T09:19:49;7.20;99.90
13203;DHT22;6666;51.626;7.530;2023-12-20T09:22:19;7.30;99.90
13203;DHT22;6666;51.626;7.530;2023-12-20T09:24:47;7.20;99.90
13203;DHT22;6666;51.626;7.530;2023-12-20T09:27:16;7.20;99.90
13203;DHT22;6666;51.626;7.530;2023-12-20T09:29:44;7.20;99.90
13203;DHT22;6666;51.626;7.530;2023-12-20T09:32:13;7.30;99.90
13203;DHT22;6666;51.626;7.530;2023-12-20T09:34:41;7.30;99.90
13203;DHT22;6666;51.626;7.530;2023-12-20T09:37:09;7.30;99.90
13203;DHT22;6666;51.626;7.530;2023-12-20T09:39:37;7.30;99.90
13203;DHT22;6666;51.626;7.530;2023-12-20T09:42:06;7.30;99.90
13203;DHT22;6666;51.626;7.530;2023-12-20T09:44:34;7.30;99.90
13203;DHT22;6666;51.626;7.530;2023-12-20T09:47:04;7.30;99.90
13203;DHT22;6666;51.626;7.530;2023-12-20T09:49:34;7.30;99.90
13203;DHT22;6666;51.626;7.530;2023-12-20T09:52:05;7.40;99.90
13203;DHT22;6666;51.626;7.530;2023-12-20T09:54:35;7.40;99.90
13203;DHT22;6666;51.626;7.530;2023-12-20T09:57:04;7.40;99.90
13203;DHT22;6666;51.626;7.530;2023-12-20T09:59:33;7.50;99.90
13203;DHT22;6666;51.626;7.530;2023-12-20T10:02:01;7.50;99.90
13203;DHT22;6666;51.626;7.530;2023-12-20T10:04:34;7.50;99.90
13203;DHT22;6666;51.626;7.530;2023-12-20T10:07:03;7.50;99.90
13203;DHT22;6666;51.626;7.530;2023-12-20T10:09:34;7.60;99.90
13203;DHT22;6666;51.626;7.530;2023-12-20T10:12:02;7.60;99.90
13203;DHT22;6666;51.626;7.530;2023-12-20T10:14:32;7.60;99.90
13203;DHT22;6666;51.626;7.530;2023-12-20T10:17:04;7.70;99.90
13203;DHT22;6666;51.626;7.530;2023-12-20T10:19:34;7.70;99.90
13203;DHT22;6666;51.626;7.530;2023-12-20T10:22:04;7.80;99.90
13203;DHT22;6666;51.626;7.530;2023-12-20T10:24:33;7.80;99.90
13203;DHT22;6666;51.626;7.530;2023-12-20T10:27:02;7.70;99.90
13203;DHT22;6666;51.626;7.530;2023-12-20T10:29:32;7.70;99.90
13203;DHT22;6666;51.626;7.530;2023-12-20T10:32:24;7.70;99.90
13203;DHT22;6666;51.626;7.530;2023-12-20T10:34:54;7.60;99.90
13203;DHT22;6666;51.626;7.530;2023-12-20T10:37:23;7.70;99.90
13203;DHT22;6666;51.626;7.530;2023-12-20T10:39:53;7.60;99.90
13203;DHT22;6666;51.626;7.530;2023-12-20T10:42:26;7.60;99.90
13203;DHT22;6666;51.626;7.530;2023-12-20T10:44:54;7.70;99.90
13203;DHT22;6666;51.626;7.530;2023-12-20T10:47:23;7.70;99.90
13203;DHT22;6666;51.626;7.530;2023-12-20T10:49:54;7.60;99.90
13203;DHT22;6666;51.626;7.530;2023-12-20T10:52:23;7.60;99.90
13203;DHT22;6666;51.626;7.530;2023-12-20T10:54:52;7.60;99.90
13203;DHT22;6666;51.626;7.530;2023-12-20T10:57:21;7.70;99.90
13203;DHT22;6666;51.626;7.530;2023-12-20T10:59:52;7.80;99.90
13203;DHT22;6666;51.626;7.530;2023-12-20T11:02:22;7.70;99.90
13203;DHT22;6666;51.626;7.530;2023-12-20T11:04:55;7.70;99.90
13203;DHT22;6666;51.626;7.530;2023-12-20T11:07:29;7.60;99.90
13203;DHT22;6666;51.626;7.530;2023-12-20T11:10:14;7.70;99.90
13203;DHT22;6666;51.626;7.530;2023-12-20T11:12:49;7.70;99.90
13203;DHT22;6666;51.626;7.530;2023-12-20T11:15:20;7.70;99.90
13203;DHT22;6666;51.626;7.530;2023-12-20T11:17:54;7.70;99.90
13203;DHT22;6666;51.626;7.530;2023-12-20T11:20:35;7.70;99.90
13203;DHT22;6666;51.626;7.530;2023-12-20T11:23:04;7.70;99.90
13203;DHT22;6666;51.626;7.530;2023-12-20T11:25:51;7.70;99.90
13203;DHT22;6666;51.626;7.530;2023-12-20T11:28:21;7.70;99.90
13203;DHT22;6666;51.626;7.530;2023-12-20T11:30:51;7.80;99.90
13203;DHT22;6666;51.626;7.530;2023-12-20T11:33:23;7.90;99.90
13203;DHT22;6666;51.626;7.530;2023-12-20T11:35:58;7.90;99.90
13203;DHT22;6666;51.626;7.530;2023-12-20T11:38:27;8.00;99.90
13203;DHT22;6666;51.626;7.530;2023-12-20T11:40:55;8.00;99.90
13203;DHT22;6666;51.626;7.530;2023-12-20T11:43:30;8.00;99.90
13203;DHT22;6666;51.626;7.530;2023-12-20T11:46:03;7.90;99.90
13203;DHT22;6666;51.626;7.530;2023-12-20T11:48:35;7.80;99.90
13203;DHT22;6666;51.626;7.530;2023-12-20T11:51:09;7.90;99.90
13203;DHT22;6666;51.626;7.530;2023-12-20T11:53:37;7.90;99.90
13203;DHT22;6666;51.626;7.530;2023-12-20T11:56:06;7.90;99.90
13203;DHT22;6666;51.626;7.530;2023-12-20T11:58:34;7.90;99.90
13203;DHT22;6666;51.626;7.530;2023-12-20T12:01:04;7.90;99.90
13203;DHT22;6666;51.626;7.530;2023-12-20T12:03:34;7.90;99.90
13203;DHT22;6666;51.626;7.530;2023-12-20T12:06:04;7.90;99.90
13203;DHT22;6666;51.626;7.530;2023-12-20T12:08:33;7.80;99.90
13203;DHT22;6666;51.626;7.530;2023-12-20T12:11:01;7.90;99.90
13203;DHT22;6666;51.626;7.530;2023-12-20T12:13:29;7.80;99.90
13203;DHT22;6666;51.626;7.530;2023-12-20T12:15:59;7.90;99.90
13203;DHT22;6666;51.626;7.530;2023-12-20T12:18:27;7.80;99.90
13203;DHT22;6666;51.626;7.530;2023-12-20T12:21:00;7.80;99.90
13203;DHT22;6666;51.626;7.530;2023-12-20T12:23:37;7.80;99.90
13203;DHT22;6666;51.626;7.530;2023-12-20T12:26:06;7.80;99.90
13203;DHT22;6666;51.626;7.530;2023-12-20T12:28:35;7.80;99.90
13203;DHT22;6666;51.626;7.530;2023-12-20T12:31:04;7.70;99.90
13203;DHT22;6666;51.626;7.530;2023-12-20T12:33:32;7.70;99.90
13203;DHT22;6666;51.626;7.530;2023-12-20T12:36:00;7.70;99.90
13203;DHT22;6666;51.626;7.530;2023-12-20T12:38:30;7.70;99.90
13203;DHT22;6666;51.626;7.530;2023-12-20T12:41:00;7.70;99.90
13203;DHT22;6666;51.626;7.530;2023-12-20T12:43:28;7.70;99.90
13203;DHT22;6666;51.626;7.530;2023-12-20T12:45:58;7.70;99.90
13203;DHT22;6666;51.626;7.530;2023-12-20T12:48:26;7.80;99.90
13203;DHT22;6666;51.626;7.530;2023-12-20T12:50:55;7.80;99.90
13203;DHT22;6666;51.626;7.530;2023-12-20T12:53:26;7.90;99.90
13203;DHT22;6666;51.626;7.530;2023-12-20T12:55:54;7.80;99.90
13203;DHT22;6666;51.626;7.530;2023-12-20T12:58:24;7.80;99.90
13203;DHT22;6666;51.626;7.530;2023-12-20T13:00:53;7.70;99.90
13203;DHT22;6666;51.626;7.530;2023-12-20T13:03:22;7.80;99.90
13203;DHT22;6666;51.626;7.530;2023-12-20T13:05:51;7.70;99.90
13203;DHT22;6666;51.626;7.530;2023-12-20T13:08:19;7.80;99.90
13203;DHT22;6666;51.626;7.530;2023-12-20T13:10:47;7.80;99.90
13203;DHT22;6666;51.626;7.530;2023-12-20T13:13:16;7.90;99.90
13203;DHT22;6666;51.626;7.530;2023-12-20T13:15:46;7.90;99.90
13203;DHT22;6666;51.626;7.530;2023-12-20T13:18:18;8.00;99.90
13203;DHT22;6666;51.626;7.530;2023-12-20T13:20:47;8.00;99.90
13203;DHT22;6666;51.626;7.530;2023-12-20T13:23:15;8.00;99.90
13203;DHT22;6666;51.626;7.530;2023-12-20T13:25:45;7.90;99.90
13203;DHT22;6666;51.626;7.530;2023-12-20T13:28:13;8.00;99.90
13203;DHT22;6666;51.626;7.530;2023-12-20T13:30:41;8.00;99.90
13203;DHT22;6666;51.626;7.530;2023-12-20T13:33:11;7.90;99.90
13203;DHT22;6666;51.626;7.530;2023-12-20T13:35:39;7.90;99.90
13203;DHT22;6666;51.626;7.530;2023-12-20T13:38:07;7.80;99.90
13203;DHT22;6666;51.626;7.530;2023-12-20T13:40:35;7.90;99.90
13203;DHT22;6666;51.626;7.530;2023-12-20T13:43:04;7.80;99.90
13203;DHT22;6666;51.626;7.530;2023-12-20T13:45:32;7.80;99.90
13203;DHT22;6666;51.626;7.530;2023-12-20T13:48:01;7.80;99.90
13203;DHT22;6666;51.626;7.530;2023-12-20T13:50:30;7.80;99.90
13203;DHT22;6666;51.626;7.530;2023-12-20T13:52:59;7.90;99.90
13203;DHT22;6666;51.626;7.530;2023-12-20T13:55:27;7.90;99.90
13203;DHT22;6666;51.626;7.530;2023-12-20T13:57:56;7.90;99.90
13203;DHT22;6666;51.626;7.530;2023-12-20T14:00:24;7.90;99.90
13203;DHT22;6666;51.626;7.530;2023-12-20T14:02:53;7.80;99.90
13203;DHT22;6666;51.626;7.530;2023-12-20T14:05:21;7.80;99.90
13203;DHT22;6666;51.626;7.530;2023-12-20T14:07:56;7.80;99.90
13203;DHT22;6666;51.626;7.530;2023-12-20T14:10:25;7.80;99.90
13203;DHT22;6666;51.626;7.530;2023-12-20T14:12:54;7.70;99.90
13203;DHT22;6666;51.626;7.530;2023-12-20T14:15:23;7.80;99.90
13203;DHT22;6666;51.626;7.530;2023-12-20T14:17:52;7.70;99.90
13203;DHT22;6666;51.626;7.530;2023-12-20T14:20:21;7.80;99.90
13203;DHT22;6666;51.626;7.530;2023-12-20T14:22:50;7.80;99.90
13203;DHT22;6666;51.626;7.530;2023-12-20T14:25:19;7.80;99.90
13203;DHT22;6666;51.626;7.530;2023-12-20T14:27:50;7.80;99.90
13203;DHT22;6666;51.626;7.530;2023-12-20T14:30:19;7.80;99.90
13203;DHT22;6666;51.626;7.530;2023-12-20T14:32:47;7.70;99.90
13203;DHT22;6666;51.626;7.530;2023-12-20T14:35:16;7.70;99.90
13203;DHT22;6666;51.626;7.530;2023-12-20T14:37:44;7.70;99.90
13203;DHT22;6666;51.626;7.530;2023-12-20T14:40:12;7.70;99.90
13203;DHT22;6666;51.626;7.530;2023-12-20T14:42:45;7.60;99.90
13203;DHT22;6666;51.626;7.530;2023-12-20T14:45:15;7.60;99.90
13203;DHT22;6666;51.626;7.530;2023-12-20T14:47:43;7.60;99.90
13203;DHT22;6666;51.626;7.530;2023-12-20T14:50:12;7.60;99.90
13203;DHT22;6666;51.626;7.530;2023-12-20T14:52:46;7.60;99.90
13203;DHT22;6666;51.626;7.530;2023-12-20T14:55:14;7.60;99.90
13203;DHT22;6666;51.626;7.530;2023-12-20T14:57:45;7.60;99.90
13203;DHT22;6666;51.626;7.530;2023-12-20T15:00:14;7.60;99.90
13203;DHT22;6666;51.626;7.530;2023-12-20T15:02:46;7.60;99.90
13203;DHT22;6666;51.626;7.530;2023-12-20T15:05:14;7.60;99.90
13203;DHT22;6666;51.626;7.530;2023-12-20T15:07:44;7.60;99.90
13203;DHT22;6666;51.626;7.530;2023-12-20T15:10:14;7.60;99.90
13203;DHT22;6666;51.626;7.530;2023-12-20T15:12:45;7.60;99.90
13203;DHT22;6666;51.626;7.530;2023-12-20T15:15:13;7.60;99.90
13203;DHT22;6666;51.626;7.530;2023-12-20T15:17:42;7.60;99.90
13203;DHT22;6666;51.626;7.530;2023-12-20T15:20:11;7.60;99.90
13203;DHT22;6666;51.626;7.530;2023-12-20T15:22:39;7.60;99.90
13203;DHT22;6666;51.626;7.530;2023-12-20T15:25:08;7.60;99.90
13203;DHT22;6666;51.626;7.530;2023-12-20T15:27:37;7.60;99.90
13203;DHT22;6666;51.626;7.530;2023-12-20T15:30:08;7.60;99.90
13203;DHT22;6666;51.626;7.530;2023-12-20T15:32:37;7.60;99.90
13203;DHT22;6666;51.626;7.530;2023-12-20T15:35:07;7.60;99.90
13203;DHT22;6666;51.626;7.530;2023-12-20T15:37:37;7.60;99.90
13203;DHT22;6666;51.626;7.530;2023-12-20T15:40:07;7.60;99.90
13203;DHT22;6666;51.626;7.530;2023-12-20T15:42:37;7.60;99.90
13203;DHT22;6666;51.626;7.530;2023-12-20T15:45:08;7.60;99.90
13203;DHT22;6666;51.626;7.530;2023-12-20T15:47:36;7.60;99.90
13203;DHT22;6666;51.626;7.530;2023-12-20T15:50:05;7.70;99.90
13203;DHT22;6666;51.626;7.530;2023-12-20T15:52:35;7.60;99.90
13203;DHT22;6666;51.626;7.530;2023-12-20T15:55:05;7.60;99.90
13203;DHT22;6666;51.626;7.530;2023-12-20T15:57:34;7.60;99.90
13203;DHT22;6666;51.626;7.530;2023-12-20T16:00:19;7.70;99.90
13203;DHT22;6666;51.626;7.530;2023-12-20T16:02:47;7.70;99.90
13203;DHT22;6666;51.626;7.530;2023-12-20T16:05:16;7.70;99.90
13203;DHT22;6666;51.626;7.530;2023-12-20T16:07:45;7.70;99.90
13203;DHT22;6666;51.626;7.530;2023-12-20T16:10:14;7.70;99.90
13203;DHT22;6666;51.626;7.530;2023-12-20T16:12:42;7.80;99.90
13203;DHT22;6666;51.626;7.530;2023-12-20T16:15:10;7.70;99.90